Time;durP1;ratioP1;P1;durP2;ratioP2;P2;SDS_P1;SDS_P2;PMS_P1;PMS_P2;Temp;Humidity;BMP_temperature;BMP_pressure;BME280_temperature;BME280_humidity;BME280_pressure;Samples;Min_cycle;Max_cycle;Signal;HPM_P1;HPM_P2
2021/11/14 00:00:37;;;;;;;;;;;6.30;99.90;;;;;;5102232;28;19940;-77
2021/11/14 00:03:05;;;;;;;;;;;6.30;99.90;;;;;;5101285;28;19913;-76
2021/11/14 00:05:33;;;;;;;;;;;6.40;99.90;;;;;;5100469;28;19919;-76
2021/11/14 00:07:58;;;;;;;;;;;6.30;99.90;;;;;;5101679;28;20011;-76
2021/11/14 00:10:24;;;;;;;;;;;6.30;99.90;;;;;;5100792;28;19959;-76
2021/11/14 00:12:52;;;;;;;;;;;6.20;99.90;;;;;;5101582;28;19912;-78
2021/11/14 00:15:18;;;;;;;;;;;6.30;99.90;;;;;;5101121;28;19947;-76
2021/11/14 00:17:44;;;;;;;;;;;6.20;99.90;;;;;;5083097;28;19909;-78
2021/11/14 00:20:11;;;;;;;;;;;6.20;99.90;;;;;;5100533;28;19919;-76
2021/11/14 00:22:37;;;;;;;;;;;6.20;99.90;;;;;;5100055;28;19912;-76
2021/11/14 00:25:04;;;;;;;;;;;6.20;99.90;;;;;;5094245;28;19908;-76
2021/11/14 00:27:30;;;;;;;;;;;6.20;99.90;;;;;;5080042;28;19908;-78
2021/11/14 00:29:56;;;;;;;;;;;6.10;99.90;;;;;;5079522;28;20002;-77
2021/11/14 00:32:21;;;;;;;;;;;6.10;99.90;;;;;;5081157;28;19909;-76
2021/11/14 00:34:51;;;;;;;;;;;6.10;99.90;;;;;;5080003;28;19915;-76
2021/11/14 00:37:18;;;;;;;;;;;6.00;99.90;;;;;;5079753;28;19915;-76
2021/11/14 00:39:44;;;;;;;;;;;6.00;99.90;;;;;;5080104;28;19908;-76
2021/11/14 00:42:10;;;;;;;;;;;5.90;99.90;;;;;;5079800;28;19916;-76
2021/11/14 00:44:35;;;;;;;;;;;5.90;99.90;;;;;;5079731;28;19947;-76
2021/11/14 00:47:01;;;;;;;;;;;5.90;99.90;;;;;;5080944;28;20405;-76
2021/11/14 00:49:27;;;;;;;;;;;5.90;99.90;;;;;;5079709;28;19913;-77
2021/11/14 00:51:53;;;;;;;;;;;5.80;99.90;;;;;;5079077;28;19919;-77
2021/11/14 00:54:19;;;;;;;;;;;5.80;99.90;;;;;;5070514;28;19909;-77
2021/11/14 00:56:44;;;;;;;;;;;5.80;99.90;;;;;;5080808;28;19923;-75
2021/11/14 00:59:10;;;;;;;;;;;5.80;99.90;;;;;;5080006;28;19932;-76
2021/11/14 01:01:35;;;;;;;;;;;5.80;99.90;;;;;;5079065;28;19958;-77
2021/11/14 01:04:01;;;;;;;;;;;5.90;99.90;;;;;;5062023;28;19909;-76
2021/11/14 01:06:27;;;;;;;;;;;5.90;99.90;;;;;;5079226;28;19935;-77
2021/11/14 01:08:53;;;;;;;;;;;5.90;99.90;;;;;;5079256;28;19947;-76
2021/11/14 01:11:18;;;;;;;;;;;6.00;99.90;;;;;;5078972;28;19924;-76
2021/11/14 01:13:44;;;;;;;;;;;6.00;99.90;;;;;;5080216;28;19908;-76
2021/11/14 01:16:12;;;;;;;;;;;6.00;99.90;;;;;;5079954;28;19908;-76
2021/11/14 01:18:40;;;;;;;;;;;5.90;99.90;;;;;;5061960;28;19909;-76
2021/11/14 01:21:08;;;;;;;;;;;5.90;99.90;;;;;;5079181;28;19918;-76
2021/11/14 01:23:34;;;;;;;;;;;5.90;99.90;;;;;;5097610;28;19939;-76
2021/11/14 01:26:00;;;;;;;;;;;6.00;99.90;;;;;;5099233;28;20381;-75
2021/11/14 01:28:26;;;;;;;;;;;6.00;99.90;;;;;;5098418;28;20364;-75
2021/11/14 01:30:53;;;;;;;;;;;6.00;99.90;;;;;;5099149;28;19908;-75
2021/11/14 01:33:20;;;;;;;;;;;6.00;99.90;;;;;;5098964;28;19908;-74
2021/11/14 01:35:46;;;;;;;;;;;6.00;99.90;;;;;;5098733;28;19940;-75
2021/11/14 01:38:11;;;;;;;;;;;6.00;99.90;;;;;;5098276;28;20145;-75
2021/11/14 01:40:39;;;;;;;;;;;6.00;99.90;;;;;;5096277;28;19915;-75
2021/11/14 01:43:05;;;;;;;;;;;6.10;99.90;;;;;;5097790;28;20389;-75
2021/11/14 01:45:31;;;;;;;;;;;6.10;99.90;;;;;;5098803;28;19908;-75
2021/11/14 01:47:56;;;;;;;;;;;6.10;99.90;;;;;;5098280;28;19987;-75
2021/11/14 01:50:22;;;;;;;;;;;6.10;99.90;;;;;;5097617;28;20287;-75
2021/11/14 01:52:49;;;;;;;;;;;6.10;99.90;;;;;;5091949;28;19908;-75
2021/11/14 01:55:16;;;;;;;;;;;6.10;99.90;;;;;;5076536;28;19908;-75
2021/11/14 01:57:42;;;;;;;;;;;6.10;99.90;;;;;;5078111;28;19916;-75
2021/11/14 02:00:10;;;;;;;;;;;6.20;99.90;;;;;;5077775;28;19915;-75
2021/11/14 02:02:36;;;;;;;;;;;6.20;99.90;;;;;;5077695;28;19920;-75
2021/11/14 02:05:03;;;;;;;;;;;6.20;99.90;;;;;;5077736;28;19908;-75
2021/11/14 02:07:29;;;;;;;;;;;6.10;99.90;;;;;;5076958;28;20473;-75
2021/11/14 02:09:56;;;;;;;;;;;6.10;99.90;;;;;;5077015;28;19912;-75
2021/11/14 02:12:21;;;;;;;;;;;6.10;99.90;;;;;;5078761;28;20390;-74
2021/11/14 02:14:47;;;;;;;;;;;6.20;99.90;;;;;;5077848;28;19939;-75
2021/11/14 02:17:13;;;;;;;;;;;6.10;99.90;;;;;;5077993;28;19912;-75
2021/11/14 02:19:38;;;;;;;;;;;6.10;99.90;;;;;;5077281;28;19908;-74
2021/11/14 02:22:04;;;;;;;;;;;6.10;99.90;;;;;;5077021;28;19912;-75
2021/11/14 02:24:30;;;;;;;;;;;6.10;99.90;;;;;;5096147;28;19912;-75
2021/11/14 02:26:55;;;;;;;;;;;6.10;99.90;;;;;;5098733;28;20391;-76
2021/11/14 02:29:21;;;;;;;;;;;6.00;99.90;;;;;;5098582;28;19908;-75
2021/11/14 02:31:47;;;;;;;;;;;6.10;99.90;;;;;;5098077;28;19989;-75
2021/11/14 02:34:13;;;;;;;;;;;6.10;99.90;;;;;;5080632;28;19908;-74
2021/11/14 02:36:38;;;;;;;;;;;6.00;99.90;;;;;;5098187;28;19955;-75
2021/11/14 02:39:05;;;;;;;;;;;5.90;99.90;;;;;;5098011;28;19931;-75
2021/11/14 02:41:31;;;;;;;;;;;5.90;99.90;;;;;;5096846;28;19912;-74
2021/11/14 02:43:58;;;;;;;;;;;5.90;99.90;;;;;;5097299;28;19908;-74
2021/11/14 02:46:24;;;;;;;;;;;5.80;99.90;;;;;;5096499;28;20038;-75
2021/11/14 02:48:49;;;;;;;;;;;5.80;99.90;;;;;;5096933;28;19970;-75
2021/11/14 02:51:19;;;;;;;;;;;5.70;99.90;;;;;;5096789;28;19908;-75
2021/11/14 02:53:45;;;;;;;;;;;5.80;99.90;;;;;;5088640;28;19908;-75
2021/11/14 02:56:13;;;;;;;;;;;5.80;99.90;;;;;;5096706;28;19909;-75
2021/11/14 02:58:38;;;;;;;;;;;5.70;99.90;;;;;;5097042;28;19908;-74
2021/11/14 03:01:13;;;;;;;;;;;5.70;99.90;;;;;;5096687;28;19918;-75
2021/11/14 03:03:40;;;;;;;;;;;5.70;99.90;;;;;;5082612;28;19908;-75
2021/11/14 03:06:06;;;;;;;;;;;5.70;99.90;;;;;;5083634;28;20431;-75
2021/11/14 03:08:32;;;;;;;;;;;5.70;99.90;;;;;;5102334;28;19912;-75
2021/11/14 03:10:57;;;;;;;;;;;5.70;99.90;;;;;;5102016;28;19986;-75
2021/11/14 03:13:23;;;;;;;;;;;5.70;99.90;;;;;;5101793;28;19908;-74
2021/11/14 03:15:52;;;;;;;;;;;5.70;99.90;;;;;;5102881;28;19912;-75
2021/11/14 03:18:19;;;;;;;;;;;5.70;99.90;;;;;;5102737;28;19911;-74
2021/11/14 03:20:46;;;;;;;;;;;5.70;99.90;;;;;;5101190;28;19915;-74
2021/11/14 03:23:12;;;;;;;;;;;5.70;99.90;;;;;;5102471;28;19916;-74
2021/11/14 03:25:38;;;;;;;;;;;5.70;99.90;;;;;;5101364;28;20282;-73
2021/11/14 03:28:03;;;;;;;;;;;5.70;99.90;;;;;;5102010;28;20046;-73
2021/11/14 03:30:32;;;;;;;;;;;5.70;99.90;;;;;;5101562;28;19962;-74
2021/11/14 03:32:58;;;;;;;;;;;5.70;99.90;;;;;;5083591;28;19908;-75
2021/11/14 03:35:24;;;;;;;;;;;5.70;99.90;;;;;;5102395;28;19915;-74
2021/11/14 03:37:49;;;;;;;;;;;5.70;99.90;;;;;;5102155;28;19961;-74
2021/11/14 03:40:16;;;;;;;;;;;5.80;99.90;;;;;;5101130;28;19908;-73
2021/11/14 03:42:42;;;;;;;;;;;5.80;99.90;;;;;;5101908;28;19912;-74
2021/11/14 03:45:08;;;;;;;;;;;5.80;99.90;;;;;;5102178;28;19915;-74
2021/11/14 03:47:35;;;;;;;;;;;5.80;99.90;;;;;;5101207;28;19908;-73
2021/11/14 03:50:01;;;;;;;;;;;5.80;99.90;;;;;;5099420;28;19916;-73
2021/11/14 03:52:27;;;;;;;;;;;5.80;99.90;;;;;;5099836;28;20387;-74
2021/11/14 03:54:52;;;;;;;;;;;5.80;99.90;;;;;;5099567;28;19914;-74
2021/11/14 03:57:18;;;;;;;;;;;5.80;99.90;;;;;;5100644;28;19916;-74
2021/11/14 03:59:44;;;;;;;;;;;5.70;99.90;;;;;;5098981;28;19908;-74
2021/11/14 04:02:09;;;;;;;;;;;5.80;99.90;;;;;;5099380;28;19923;-75
2021/11/14 04:04:34;;;;;;;;;;;5.80;99.90;;;;;;5099577;28;19912;-74
2021/11/14 04:07:00;;;;;;;;;;;5.80;99.90;;;;;;5100210;28;19915;-74
2021/11/14 04:09:26;;;;;;;;;;;5.80;99.90;;;;;;5099493;28;19908;-75
2021/11/14 04:11:52;;;;;;;;;;;5.80;99.90;;;;;;5099224;28;20375;-74
2021/11/14 04:14:17;;;;;;;;;;;5.80;99.90;;;;;;5099403;28;19931;-74
2021/11/14 04:16:43;;;;;;;;;;;5.80;99.90;;;;;;5081314;28;19908;-74
2021/11/14 04:19:09;;;;;;;;;;;5.90;99.90;;;;;;5099599;28;19909;-74
2021/11/14 04:21:35;;;;;;;;;;;5.90;99.90;;;;;;5099857;28;19987;-73
2021/11/14 04:24:01;;;;;;;;;;;5.90;99.90;;;;;;5085130;28;19958;-73
2021/11/14 04:26:26;;;;;;;;;;;5.90;99.90;;;;;;5078467;28;20468;-73
2021/11/14 04:28:52;;;;;;;;;;;5.90;99.90;;;;;;5080277;28;19908;-73
2021/11/14 04:31:18;;;;;;;;;;;5.90;99.90;;;;;;5079289;28;20389;-74
2021/11/14 04:33:43;;;;;;;;;;;5.90;99.90;;;;;;5081316;28;19908;-74
2021/11/14 04:36:09;;;;;;;;;;;5.90;99.90;;;;;;5064205;28;19909;-74
2021/11/14 04:38:35;;;;;;;;;;;5.90;99.90;;;;;;5080102;28;19959;-73
2021/11/14 04:41:02;;;;;;;;;;;5.90;99.90;;;;;;5079610;28;19919;-74
2021/11/14 04:43:28;;;;;;;;;;;5.90;99.90;;;;;;5062757;28;19913;-74
2021/11/14 04:45:54;;;;;;;;;;;5.90;99.90;;;;;;5081114;28;19915;-73
2021/11/14 04:48:21;;;;;;;;;;;5.90;99.90;;;;;;5079703;28;20450;-73
2021/11/14 04:50:46;;;;;;;;;;;5.90;99.90;;;;;;5078863;28;19908;-73
2021/11/14 04:53:12;;;;;;;;;;;5.80;99.90;;;;;;5088120;28;19908;-73
2021/11/14 04:55:39;;;;;;;;;;;5.70;99.90;;;;;;5098534;28;19912;-73
2021/11/14 04:58:05;;;;;;;;;;;5.70;99.90;;;;;;5100682;28;19957;-73
2021/11/14 05:00:33;;;;;;;;;;;5.70;99.90;;;;;;5100411;28;19915;-74
2021/11/14 05:02:59;;;;;;;;;;;5.60;99.90;;;;;;5099628;28;20194;-74
2021/11/14 05:05:25;;;;;;;;;;;5.60;99.90;;;;;;5081988;28;19915;-74
2021/11/14 05:07:50;;;;;;;;;;;5.60;99.90;;;;;;5101147;28;19908;-73
2021/11/14 05:10:16;;;;;;;;;;;5.50;99.90;;;;;;5099529;28;19920;-74
2021/11/14 05:12:42;;;;;;;;;;;5.60;99.90;;;;;;5100207;28;20028;-74
2021/11/14 05:15:08;;;;;;;;;;;5.60;99.90;;;;;;5099856;28;19985;-74
2021/11/14 05:17:34;;;;;;;;;;;5.60;99.90;;;;;;5098780;28;19955;-73
2021/11/14 05:19:59;;;;;;;;;;;5.70;99.90;;;;;;5098085;28;19920;-74
2021/11/14 05:22:25;;;;;;;;;;;5.70;99.90;;;;;;5097724;28;19912;-74
2021/11/14 05:24:50;;;;;;;;;;;5.60;99.90;;;;;;5060679;28;19916;-73
2021/11/14 05:27:16;;;;;;;;;;;5.60;99.90;;;;;;5077179;28;20294;-74
2021/11/14 05:29:41;;;;;;;;;;;5.60;99.90;;;;;;5078368;28;19908;-74
2021/11/14 05:32:07;;;;;;;;;;;5.60;99.90;;;;;;5077758;28;19909;-73
2021/11/14 05:34:33;;;;;;;;;;;5.60;99.90;;;;;;5078414;28;19909;-74
2021/11/14 05:36:59;;;;;;;;;;;5.60;99.90;;;;;;5078126;28;19935;-74
2021/11/14 05:39:24;;;;;;;;;;;5.60;99.90;;;;;;5077304;28;19916;-73
2021/11/14 05:41:50;;;;;;;;;;;5.60;99.90;;;;;;5077685;28;19912;-74
2021/11/14 05:44:16;;;;;;;;;;;5.50;99.90;;;;;;5077010;28;19999;-74
2021/11/14 05:46:41;;;;;;;;;;;5.50;99.90;;;;;;5077182;28;20168;-73
2021/11/14 05:49:09;;;;;;;;;;;5.50;99.90;;;;;;5078068;28;19908;-74
2021/11/14 05:51:36;;;;;;;;;;;5.60;99.90;;;;;;5076791;28;19977;-74
2021/11/14 05:54:01;;;;;;;;;;;5.50;99.90;;;;;;5086443;28;19908;-74
2021/11/14 05:56:27;;;;;;;;;;;5.40;99.90;;;;;;5095339;28;19915;-74
2021/11/14 05:58:59;;;;;;;;;;;5.50;99.90;;;;;;5098408;28;19908;-74
2021/11/14 06:01:37;;;;;;;;;;;5.50;99.90;;;;;;5098254;28;19912;-74
2021/11/14 06:06:37;;;;;;;;;;;5.60;99.90;;;;;;5098695;28;19908;-74
2021/11/14 06:09:02;;;;;;;;;;;5.60;99.90;;;;;;5098099;28;19954;-74
2021/11/14 06:11:28;;;;;;;;;;;5.50;99.90;;;;;;5099296;28;19916;-73
2021/11/14 06:13:53;;;;;;;;;;;5.50;99.90;;;;;;5098992;28;19912;-74
2021/11/14 06:16:20;;;;;;;;;;;5.40;99.90;;;;;;5099019;28;20390;-74
2021/11/14 06:18:45;;;;;;;;;;;5.50;99.90;;;;;;5080595;28;20430;-74
2021/11/14 06:21:11;;;;;;;;;;;5.40;99.90;;;;;;5098295;28;20018;-74
2021/11/14 06:23:37;;;;;;;;;;;5.40;99.90;;;;;;5084612;28;19923;-74
2021/11/14 06:26:03;;;;;;;;;;;5.40;99.90;;;;;;5071201;28;19908;-74
2021/11/14 06:28:29;;;;;;;;;;;5.40;99.90;;;;;;5071655;28;19913;-75
2021/11/14 06:30:54;;;;;;;;;;;5.30;99.90;;;;;;5070728;28;20272;-74
2021/11/14 06:33:20;;;;;;;;;;;5.40;99.90;;;;;;5071555;28;19954;-74
2021/11/14 06:35:45;;;;;;;;;;;5.30;99.90;;;;;;5053660;28;19912;-74
2021/11/14 06:38:11;;;;;;;;;;;5.40;99.90;;;;;;5071476;28;19916;-74
2021/11/14 06:40:36;;;;;;;;;;;5.60;99.90;;;;;;5074894;28;19916;-74
2021/11/14 06:43:02;;;;;;;;;;;5.60;99.90;;;;;;5075084;28;19912;-74
2021/11/14 06:45:27;;;;;;;;;;;5.60;99.90;;;;;;5075105;28;19908;-74
2021/11/14 06:47:53;;;;;;;;;;;5.50;99.90;;;;;;5075566;28;19916;-74
2021/11/14 06:50:19;;;;;;;;;;;5.40;99.90;;;;;;5074984;28;19959;-74
2021/11/14 06:52:44;;;;;;;;;;;5.40;99.90;;;;;;5079277;28;19908;-74
2021/11/14 06:55:11;;;;;;;;;;;5.40;99.90;;;;;;5094921;28;19908;-74
2021/11/14 06:57:36;;;;;;;;;;;5.40;99.90;;;;;;5076647;28;20393;-74
2021/11/14 07:00:03;;;;;;;;;;;5.50;99.90;;;;;;5094584;28;19908;-75
2021/11/14 07:02:29;;;;;;;;;;;5.60;99.90;;;;;;5094898;28;19919;-74
2021/11/14 07:04:54;;;;;;;;;;;5.50;99.90;;;;;;5095226;28;20010;-74
2021/11/14 07:07:20;;;;;;;;;;;5.40;99.90;;;;;;5095156;28;19922;-74
2021/11/14 07:09:45;;;;;;;;;;;5.40;99.90;;;;;;5094332;28;20028;-75
2021/11/14 07:12:11;;;;;;;;;;;5.50;99.90;;;;;;5094963;28;20417;-74
2021/11/14 07:14:36;;;;;;;;;;;5.60;99.90;;;;;;5094866;28;19948;-74
2021/11/14 07:17:02;;;;;;;;;;;5.70;99.90;;;;;;5095502;28;19979;-75
2021/11/14 07:19:28;;;;;;;;;;;5.80;99.90;;;;;;5094762;28;20329;-74
2021/11/14 07:21:53;;;;;;;;;;;5.90;99.90;;;;;;5094413;28;20290;-74
2021/11/14 07:24:19;;;;;;;;;;;6.00;99.90;;;;;;5077361;28;20353;-74
2021/11/14 07:26:45;;;;;;;;;;;6.00;99.90;;;;;;5074620;28;19934;-74
2021/11/14 07:29:10;;;;;;;;;;;5.90;99.90;;;;;;5074453;28;19912;-74
2021/11/14 07:31:36;;;;;;;;;;;6.00;99.90;;;;;;5074095;28;19909;-75
2021/11/14 07:34:02;;;;;;;;;;;6.10;99.90;;;;;;5074449;28;19915;-74
2021/11/14 07:36:27;;;;;;;;;;;6.20;99.90;;;;;;5074499;28;19958;-74
2021/11/14 07:38:53;;;;;;;;;;;6.40;99.90;;;;;;5074400;28;19954;-74
2021/11/14 07:41:18;;;;;;;;;;;6.50;99.90;;;;;;5073445;28;19919;-74
2021/11/14 07:43:44;;;;;;;;;;;6.90;99.90;;;;;;5074075;28;20256;-74
2021/11/14 07:46:10;;;;;;;;;;;7.10;99.90;;;;;;5074444;28;19912;-74
2021/11/14 07:48:35;;;;;;;;;;;7.30;99.90;;;;;;5074237;28;19951;-75
2021/11/14 07:51:01;;;;;;;;;;;7.30;99.90;;;;;;5054659;28;19908;-74
2021/11/14 07:53:28;;;;;;;;;;;7.20;99.90;;;;;;5083234;28;20309;-74
2021/11/14 07:55:54;;;;;;;;;;;7.10;99.90;;;;;;5093859;28;19908;-74
2021/11/14 07:58:19;;;;;;;;;;;7.10;99.90;;;;;;5093999;28;20210;-75
2021/11/14 08:00:45;;;;;;;;;;;7.00;99.90;;;;;;5093387;28;20000;-74
2021/11/14 08:03:11;;;;;;;;;;;6.80;99.90;;;;;;5093753;28;19962;-74
2021/11/14 08:05:37;;;;;;;;;;;6.80;99.90;;;;;;5093807;28;19915;-74
2021/11/14 08:08:03;;;;;;;;;;;6.90;99.90;;;;;;5093635;28;20366;-75
2021/11/14 08:10:29;;;;;;;;;;;7.30;99.90;;;;;;5093034;28;19916;-76
2021/11/14 08:12:55;;;;;;;;;;;8.30;99.90;;;;;;5093708;28;19908;-76
2021/11/14 08:15:22;;;;;;;;;;;9.00;99.90;;;;;;5093705;28;20042;-75
2021/11/14 08:17:47;;;;;;;;;;;9.00;99.90;;;;;;5093558;28;19912;-75
2021/11/14 08:20:13;;;;;;;;;;;8.40;99.90;;;;;;5094379;28;20427;-74
2021/11/14 08:22:38;;;;;;;;;;;8.10;99.90;;;;;;5092194;28;19913;-75
2021/11/14 08:25:05;;;;;;;;;;;7.80;99.90;;;;;;5073565;28;19969;-75
2021/11/14 08:27:31;;;;;;;;;;;7.70;99.90;;;;;;5074633;28;20367;-74
2021/11/14 08:29:57;;;;;;;;;;;7.80;99.90;;;;;;5073383;28;19909;-75
2021/11/14 08:32:22;;;;;;;;;;;8.00;99.90;;;;;;5055366;28;19908;-75
2021/11/14 08:34:48;;;;;;;;;;;8.00;99.90;;;;;;5073619;28;19915;-74
2021/11/14 08:37:13;;;;;;;;;;;8.20;99.90;;;;;;5073541;28;19912;-76
2021/11/14 08:39:39;;;;;;;;;;;8.40;99.90;;;;;;5073935;28;20382;-75
2021/11/14 08:42:05;;;;;;;;;;;8.40;99.90;;;;;;5072913;28;19959;-75
2021/11/14 08:44:31;;;;;;;;;;;8.30;99.90;;;;;;5072985;28;19908;-75
2021/11/14 08:46:57;;;;;;;;;;;8.20;99.90;;;;;;5072981;28;20074;-75
2021/11/14 08:49:23;;;;;;;;;;;7.90;99.90;;;;;;5073109;28;19908;-75
2021/11/14 08:51:48;;;;;;;;;;;7.80;99.90;;;;;;5075000;28;20027;-75
2021/11/14 08:54:14;;;;;;;;;;;7.70;99.90;;;;;;5086227;28;20030;-75
2021/11/14 08:56:40;;;;;;;;;;;7.70;99.90;;;;;;5070696;28;20363;-75
2021/11/14 08:59:07;;;;;;;;;;;7.60;99.90;;;;;;5071875;28;20367;-75
2021/11/14 09:01:33;;;;;;;;;;;7.80;99.90;;;;;;5071436;28;20256;-75
2021/11/14 09:03:59;;;;;;;;;;;8.00;99.90;;;;;;5071936;28;19916;-75
2021/11/14 09:06:24;;;;;;;;;;;8.10;99.90;;;;;;5071745;28;19908;-75
2021/11/14 09:08:50;;;;;;;;;;;7.90;99.90;;;;;;5070215;28;20302;-75
2021/11/14 09:11:16;;;;;;;;;;;7.70;99.90;;;;;;5070994;28;19924;-75
2021/11/14 09:13:41;;;;;;;;;;;7.80;99.90;;;;;;5071528;28;19908;-75
2021/11/14 09:16:07;;;;;;;;;;;7.90;99.90;;;;;;5071448;28;19912;-74
2021/11/14 09:18:32;;;;;;;;;;;7.90;99.90;;;;;;5071580;28;19932;-74
2021/11/14 09:20:58;;;;;;;;;;;7.90;99.90;;;;;;5070902;28;19912;-74
2021/11/14 09:23:27;;;;;;;;;;;7.90;99.90;;;;;;5082211;28;20287;-74
2021/11/14 09:25:53;;;;;;;;;;;7.90;99.90;;;;;;5072453;28;19994;-74
2021/11/14 09:28:19;;;;;;;;;;;8.00;99.90;;;;;;5092165;28;19918;-74
2021/11/14 09:30:48;;;;;;;;;;;8.00;99.90;;;;;;5091502;28;20499;-74
2021/11/14 09:33:14;;;;;;;;;;;7.80;99.90;;;;;;5073336;28;19975;-74
2021/11/14 09:35:39;;;;;;;;;;;7.70;99.90;;;;;;5091406;28;20364;-74
2021/11/14 09:38:05;;;;;;;;;;;7.60;99.90;;;;;;5091211;28;20183;-74
2021/11/14 09:40:31;;;;;;;;;;;7.50;99.90;;;;;;5091456;28;19908;-74
2021/11/14 09:42:57;;;;;;;;;;;7.60;99.90;;;;;;5091165;28;20382;-74
2021/11/14 09:45:29;;;;;;;;;;;7.70;99.90;;;;;;5091051;28;19920;-74
2021/11/14 09:47:55;;;;;;;;;;;7.70;99.90;;;;;;5091315;28;19968;-74
2021/11/14 09:50:21;;;;;;;;;;;7.70;99.90;;;;;;5090298;28;19916;-74
2021/11/14 09:52:46;;;;;;;;;;;7.70;99.90;;;;;;5083033;28;20367;-74
2021/11/14 09:55:12;;;;;;;;;;;7.70;99.90;;;;;;5091076;28;20014;-74
2021/11/14 09:57:38;;;;;;;;;;;7.70;99.90;;;;;;5092053;28;19941;-74
2021/11/14 10:00:07;;;;;;;;;;;7.90;99.90;;;;;;5091008;28;19908;-74
2021/11/14 10:02:32;;;;;;;;;;;8.10;99.90;;;;;;5091735;28;20003;-75
2021/11/14 10:04:58;;;;;;;;;;;8.10;99.90;;;;;;5091568;28;19943;-74
2021/11/14 10:07:23;;;;;;;;;;;8.20;99.90;;;;;;5091018;28;19915;-74
2021/11/14 10:09:51;;;;;;;;;;;8.40;99.90;;;;;;5090652;28;20388;-74
2021/11/14 10:12:16;;;;;;;;;;;8.40;99.90;;;;;;5090965;28;20667;-75
2021/11/14 10:14:43;;;;;;;;;;;8.40;99.90;;;;;;5089799;28;19908;-75
2021/11/14 10:17:34;;;;;;;;;;;8.60;99.90;;;;;;5090288;28;19953;-75
2021/11/14 10:20:11;;;;;;;;;;;8.60;99.90;;;;;;5085848;28;19912;-75
2021/11/14 10:22:38;;;;;;;;;;;8.80;99.90;;;;;;5090716;28;19920;-74
2021/11/14 10:25:04;;;;;;;;;;;8.90;99.90;;;;;;5071409;28;19955;-74
2021/11/14 10:27:30;;;;;;;;;;;8.80;99.90;;;;;;5090261;28;19912;-75
2021/11/14 10:29:56;;;;;;;;;;;8.80;99.90;;;;;;5089647;28;19908;-75
2021/11/14 10:32:22;;;;;;;;;;;8.70;99.90;;;;;;5089912;28;19977;-75
2021/11/14 10:34:48;;;;;;;;;;;8.60;99.90;;;;;;5071833;28;19977;-75
2021/11/14 10:37:14;;;;;;;;;;;8.80;99.90;;;;;;5089797;28;19943;-75
2021/11/14 10:39:40;;;;;;;;;;;9.00;99.90;;;;;;5089646;28;20405;-76
2021/11/14 10:42:15;;;;;;;;;;;8.90;99.90;;;;;;5089753;28;20358;-75
2021/11/14 10:44:48;;;;;;;;;;;8.80;99.90;;;;;;5069282;28;19963;-76
2021/11/14 10:47:14;;;;;;;;;;;8.50;99.90;;;;;;5089957;28;19912;-75
2021/11/14 10:50:03;;;;;;;;;;;8.50;99.90;;;;;;5089441;28;19934;-75
2021/11/14 10:52:33;;;;;;;;;;;8.40;99.90;;;;;;5086601;28;19984;-75
2021/11/14 10:55:00;;;;;;;;;;;8.30;99.90;;;;;;5071301;28;20423;-75
2021/11/14 10:57:29;;;;;;;;;;;8.30;99.90;;;;;;5090482;28;19908;-75
2021/11/14 10:59:55;;;;;;;;;;;8.30;99.90;;;;;;5089590;28;19957;-75
2021/11/14 11:02:21;;;;;;;;;;;8.30;99.90;;;;;;5090650;28;19912;-75
2021/11/14 11:04:47;;;;;;;;;;;8.50;99.90;;;;;;5090539;28;19923;-75
2021/11/14 11:07:14;;;;;;;;;;;8.50;99.90;;;;;;5089900;28;19942;-75
2021/11/14 11:09:41;;;;;;;;;;;8.50;99.90;;;;;;5090105;28;19908;-76
2021/11/14 11:12:18;;;;;;;;;;;8.60;99.90;;;;;;5090365;28;19912;-75
2021/11/14 11:14:57;;;;;;;;;;;8.80;99.90;;;;;;5090330;28;20389;-75
2021/11/14 11:17:23;;;;;;;;;;;8.90;99.90;;;;;;5090358;28;19912;-75
2021/11/14 11:19:48;;;;;;;;;;;8.90;99.90;;;;;;5089337;28;19970;-75
2021/11/14 11:22:14;;;;;;;;;;;8.90;99.90;;;;;;5089908;28;19916;-76
2021/11/14 11:24:50;;;;;;;;;;;8.90;99.90;;;;;;5087295;28;19912;-75
2021/11/14 11:27:16;;;;;;;;;;;8.80;99.90;;;;;;5093466;28;19908;-76
2021/11/14 11:29:42;;;;;;;;;;;8.90;99.90;;;;;;5094136;28;19931;-75
2021/11/14 11:32:09;;;;;;;;;;;9.10;99.90;;;;;;5093771;28;20363;-75
2021/11/14 11:34:34;;;;;;;;;;;9.10;99.90;;;;;;5094086;28;19916;-76
2021/11/14 11:37:00;;;;;;;;;;;9.20;99.90;;;;;;5092709;28;19916;-75
2021/11/14 11:39:26;;;;;;;;;;;9.10;99.90;;;;;;5094361;28;19908;-75
2021/11/14 11:41:53;;;;;;;;;;;9.20;99.90;;;;;;5093732;28;19912;-75
2021/11/14 11:44:19;;;;;;;;;;;9.20;99.90;;;;;;5094197;28;19908;-76
2021/11/14 11:46:52;;;;;;;;;;;9.00;99.90;;;;;;5094160;28;19931;-76
2021/11/14 11:49:20;;;;;;;;;;;9.00;99.90;;;;;;5075998;28;19912;-75
2021/11/14 11:51:50;;;;;;;;;;;8.80;99.90;;;;;;5093579;28;20007;-75
2021/11/14 11:54:18;;;;;;;;;;;8.90;99.90;;;;;;5077244;28;19908;-75
2021/11/14 11:56:56;;;;;;;;;;;9.00;99.90;;;;;;5073744;28;19908;-76
2021/11/14 11:59:29;;;;;;;;;;;9.00;99.90;;;;;;5073548;28;19914;-76
2021/11/14 12:01:56;;;;;;;;;;;9.00;99.90;;;;;;5073271;28;19912;-76
2021/11/14 12:04:25;;;;;;;;;;;9.00;99.90;;;;;;5073613;28;19916;-76
2021/11/14 12:07:01;;;;;;;;;;;9.10;99.90;;;;;;5073802;28;19912;-75
2021/11/14 12:09:36;;;;;;;;;;;9.10;99.90;;;;;;5073284;28;19908;-76
2021/11/14 12:12:02;;;;;;;;;;;9.20;99.90;;;;;;5073022;28;20333;-76
2021/11/14 12:14:29;;;;;;;;;;;9.30;99.90;;;;;;5073230;28;19973;-76
2021/11/14 12:16:57;;;;;;;;;;;9.30;99.90;;;;;;5073210;28;19943;-75
2021/11/14 12:19:24;;;;;;;;;;;9.30;99.90;;;;;;5073121;28;19991;-75
2021/11/14 12:22:11;;;;;;;;;;;9.30;99.90;;;;;;5072457;28;19959;-75
2021/11/14 12:24:53;;;;;;;;;;;9.30;99.90;;;;;;5092156;28;20428;-76
2021/11/14 12:27:33;;;;;;;;;;;9.40;99.90;;;;;;5093326;28;19909;-76
2021/11/14 12:30:02;;;;;;;;;;;9.40;99.90;;;;;;5092600;28;19915;-75
2021/11/14 12:32:42;;;;;;;;;;;9.40;99.90;;;;;;5093365;28;19908;-76
2021/11/14 12:35:13;;;;;;;;;;;9.40;99.90;;;;;;5092927;28;19912;-76
2021/11/14 12:37:47;;;;;;;;;;;9.20;99.90;;;;;;5074416;28;19908;-76
2021/11/14 12:40:14;;;;;;;;;;;9.10;99.90;;;;;;5092579;28;20079;-76
2021/11/14 12:42:40;;;;;;;;;;;9.10;99.90;;;;;;5092727;28;20382;-76
2021/11/14 12:45:06;;;;;;;;;;;9.00;99.90;;;;;;5092751;28;19953;-76
2021/11/14 12:47:39;;;;;;;;;;;8.90;99.90;;;;;;5092608;28;20007;-76
2021/11/14 12:50:08;;;;;;;;;;;8.80;99.90;;;;;;5092454;28;19908;-76
2021/11/14 12:52:36;;;;;;;;;;;8.70;99.90;;;;;;5090073;28;19908;-76
2021/11/14 12:55:04;;;;;;;;;;;8.60;99.90;;;;;;5054393;28;19908;-76
2021/11/14 12:57:41;;;;;;;;;;;8.60;99.90;;;;;;5076330;28;19912;-75
2021/11/14 13:00:07;;;;;;;;;;;8.50;99.90;;;;;;5094006;28;19970;-75
2021/11/14 13:02:33;;;;;;;;;;;8.40;99.90;;;;;;5092488;28;19939;-74
2021/11/14 13:05:10;;;;;;;;;;;8.40;99.90;;;;;;5075349;28;19915;-75
2021/11/14 13:07:36;;;;;;;;;;;8.40;99.90;;;;;;5072276;28;19908;-76
2021/11/14 13:10:13;;;;;;;;;;;8.20;99.90;;;;;;5071549;28;20007;-76
2021/11/14 13:12:43;;;;;;;;;;;8.20;99.90;;;;;;5072000;28;19916;-75
2021/11/14 13:15:08;;;;;;;;;;;8.20;99.90;;;;;;5072004;28;20355;-74
2021/11/14 13:17:34;;;;;;;;;;;8.20;99.90;;;;;;5071922;28;19913;-74
2021/11/14 13:20:02;;;;;;;;;;;8.30;99.90;;;;;;5071416;28;19913;-74
2021/11/14 13:22:30;;;;;;;;;;;8.30;99.90;;;;;;5073218;28;19962;-74
2021/11/14 13:25:00;;;;;;;;;;;8.30;99.90;;;;;;5091609;28;20367;-74
2021/11/14 13:27:26;;;;;;;;;;;8.40;99.90;;;;;;5091929;28;19946;-74
2021/11/14 13:29:52;;;;;;;;;;;8.40;99.90;;;;;;5091560;28;20255;-74
2021/11/14 13:32:19;;;;;;;;;;;8.50;99.90;;;;;;5091714;28;19934;-73
2021/11/14 13:34:45;;;;;;;;;;;8.50;99.90;;;;;;5091713;28;19930;-74
2021/11/14 13:37:13;;;;;;;;;;;8.60;99.90;;;;;;5091602;28;19908;-74
2021/11/14 13:39:43;;;;;;;;;;;8.70;99.90;;;;;;5091412;28;19912;-74
2021/11/14 13:42:23;;;;;;;;;;;8.70;99.90;;;;;;5091613;28;19998;-76
2021/11/14 13:44:53;;;;;;;;;;;8.70;99.90;;;;;;5091734;28;20370;-74
2021/11/14 13:47:27;;;;;;;;;;;8.60;99.90;;;;;;5091662;28;19999;-74
2021/11/14 13:49:52;;;;;;;;;;;8.50;99.90;;;;;;5090265;28;20285;-74
2021/11/14 13:52:18;;;;;;;;;;;8.50;99.90;;;;;;5091155;28;19908;-74
2021/11/14 13:55:03;;;;;;;;;;;8.50;99.90;;;;;;5071184;28;20282;-74
2021/11/14 13:57:30;;;;;;;;;;;8.50;99.90;;;;;;5071241;28;19908;-74
2021/11/14 13:59:57;;;;;;;;;;;8.60;99.90;;;;;;5070844;28;19908;-74
2021/11/14 14:02:23;;;;;;;;;;;8.70;99.90;;;;;;5071097;28;20545;-75
2021/11/14 14:05:09;;;;;;;;;;;8.70;99.90;;;;;;5071143;28;20394;-74
2021/11/14 14:07:37;;;;;;;;;;;8.80;99.90;;;;;;5070695;28;20025;-74
2021/11/14 14:10:16;;;;;;;;;;;8.80;99.90;;;;;;5070663;28;20002;-74
2021/11/14 14:12:49;;;;;;;;;;;8.80;99.90;;;;;;5071169;28;20375;-74
2021/11/14 14:15:17;;;;;;;;;;;8.80;99.90;;;;;;5071144;28;19943;-74
2021/11/14 14:17:45;;;;;;;;;;;8.70;99.90;;;;;;5071091;28;19915;-74
2021/11/14 14:20:11;;;;;;;;;;;8.70;99.90;;;;;;5070601;28;20394;-74
2021/11/14 14:22:37;;;;;;;;;;;8.70;99.90;;;;;;5073657;28;19927;-74
2021/11/14 14:25:04;;;;;;;;;;;8.60;99.90;;;;;;5091737;28;20149;-74
2021/11/14 14:27:29;;;;;;;;;;;8.60;99.90;;;;;;5092364;28;20275;-74
2021/11/14 14:29:56;;;;;;;;;;;8.50;99.90;;;;;;5091327;28;19908;-74
2021/11/14 14:32:21;;;;;;;;;;;8.50;99.90;;;;;;5091169;28;19908;-74